• Join FlightAware (Why Join?)
  • Login
  • US Flag 
05:14AM EDT


 

Airport Tracker/Info


-or-


 

Live Flight TrackerFlight Track Log ✈ CSN6997 ✈ 26-Feb-2014 ✈ ZWWW / URC - ZSSS / SHA

Flight Track Log - Related Links

Times and Time Zones

All times are in EST time to prevent confusion due to time zone crossing. See the CSN6997 flight status page for this flight to view local times or setup timezone preferences in your user account.

Time Position Orientation Groundspeed Altitude Reporting Facility
EST Latitude Longitude Course Direction KTS MPH feet Rate Location/Type
03:59AM 43.8776 87.6373 104° East  Level Estimated
04:00AM 43.8478 87.8001 104° East  Level Estimated
04:01AM 43.8178 87.9628 104° East  Level Estimated
04:02AM 43.7875 88.1253 104° East  Level Estimated
04:03AM 43.7571 88.2877 105° East  Level Estimated
04:04AM 43.7264 88.4499 105° East  Level Estimated
04:05AM 43.6954 88.6119 105° East  Level Estimated
04:06AM 43.6643 88.7738 105° East  Level Estimated
04:07AM 43.6329 88.9355 105° East  Level Estimated
04:08AM 43.6013 89.0970 105° East  Level Estimated
04:09AM 43.5694 89.2583 105° East  Level Estimated
04:10AM 43.5373 89.4195 105° East  Level Estimated
04:11AM 43.5051 89.5805 105° East  Level Estimated
04:12AM 43.4725 89.7414 106° East  Level Estimated
04:13AM 43.4398 89.9020 106° East  Level Estimated
04:14AM 43.4063 90.0652 106° East  Level Estimated
04:15AM 43.3725 90.2282 106° East  Level Estimated
04:16AM 43.3385 90.3910 106° East  Level Estimated
04:17AM 43.3043 90.5536 106° East  Level Estimated
04:18AM 43.2698 90.7161 106° East  Level Estimated
04:19AM 43.2352 90.8783 106° East  Level Estimated
04:20AM 43.2002 91.0404 106° East  Level Estimated
04:21AM 43.1651 91.2023 107° East  Level Estimated
04:22AM 43.1297 91.3640 107° East  Level Estimated
04:23AM 43.0942 91.5255 107° East  Level Estimated
04:24AM 43.0583 91.6868 107° East  Level Estimated
04:25AM 43.0223 91.8480 107° East  Level Estimated
04:26AM 42.9860 92.0089 107° East  Level Estimated
04:27AM 42.9495 92.1697 107° East  Level Estimated
04:28AM 42.9128 92.3302 107° East  Level Estimated
04:29AM 42.8759 92.4906 107° East  Level Estimated
04:30AM 42.8387 92.6508 108° East  Level Estimated
04:31AM 42.8013 92.8108 108° East  Level Estimated
04:32AM 42.7637 92.9706 108° East  Level Estimated
04:33AM 42.7259 93.1302 108° East  Level Estimated
04:34AM 42.6878 93.2896 108° East  Level Estimated
04:35AM 42.6495 93.4488 108° East  Level Estimated
04:36AM 42.6110 93.6078 108° East  Level Estimated
04:37AM 42.5723 93.7666 108° East  Level Estimated
04:38AM 42.5334 93.9252 108° East  Level Estimated
04:39AM 42.4942 94.0836 108° East  Level Estimated
04:40AM 42.4548 94.2419 109° East  Level Estimated
04:41AM 42.4153 94.3999 109° East  Level Estimated
04:42AM 42.3755 94.5577 109° East  Level Estimated
04:43AM 42.3354 94.7153 109° East  Level Estimated
04:44AM 42.2952 94.8727 109° East  Level Estimated
04:45AM 42.2547 95.0300 109° East  Level Estimated
04:46AM 42.2141 95.1870 109° East  Level Estimated
04:47AM 42.1732 95.3438 109° East  Level Estimated
04:48AM 42.1321 95.5004 109° East  Level Estimated
04:49AM 42.0908 95.6568 110° East  Level Estimated
04:50AM 42.0493 95.8130 110° East  Level Estimated
04:51AM 42.0075 95.9690 110° East  Level Estimated
04:52AM 41.9656 96.1248 110° East  Level Estimated
04:53AM 41.9235 96.2804 110° East  Level Estimated
04:54AM 41.8811 96.4358 110° East  Level Estimated
04:55AM 41.8385 96.5910 110° East  Level Estimated
04:56AM 41.7957 96.7459 110° East  Level Estimated
04:57AM 41.7528 96.9007 110° East  Level Estimated
04:58AM 41.7095 97.0552 110° East  Level Estimated
04:59AM 41.6661 97.2096 111° Southeast  Level Estimated
05:00AM 41.6225 97.3637 111° Southeast  Level Estimated
05:01AM 41.5787 97.5176 111° Southeast  Level Estimated
05:02AM 41.5347 97.6714 111° Southeast  Level Estimated
05:03AM 41.4905 97.8249 111° Southeast  Level Estimated
05:04AM 41.4461 97.9782 111° Southeast  Level Estimated
05:05AM 41.4014 98.1313 111° Southeast  Level Estimated
05:06AM 41.3566 98.2841 111° Southeast  Level Estimated
05:07AM 41.3116 98.4368 111° Southeast  Level Estimated
05:08AM 41.2663 98.5893 111° Southeast  Level Estimated
05:09AM 41.2209 98.7415 112° Southeast  Level Estimated
05:10AM 41.1753 98.8935 112° Southeast  Level Estimated
05:11AM 41.1294 99.0454 112° Southeast  Level Estimated
05:12AM 41.0834 99.1970 112° Southeast  Level Estimated
05:13AM 41.0371 99.3484 112° Southeast  Level Estimated
05:14AM 40.9907 99.4996 112° Southeast  Level Estimated
05:15AM 40.9441 99.6505 112° Southeast  Level Estimated
05:16AM 40.8973 99.8013 112° Southeast  Level Estimated
05:17AM 40.8502 99.9518 112° Southeast  Level Estimated
05:18AM 40.8030 100.1022 112° Southeast  Level Estimated
05:19AM 40.7556 100.2523 113° Southeast  Level Estimated
05:20AM 40.7080 100.4022 113° Southeast  Level Estimated
05:21AM 40.6602 100.5518 113° Southeast  Level Estimated
05:22AM 40.6122 100.7013 113° Southeast  Level Estimated
05:23AM 40.5640 100.8506 113° Southeast  Level Estimated
05:24AM 40.5156 100.9996 113° Southeast  Level Estimated
05:25AM 40.4671 101.1484 113° Southeast  Level Estimated
05:26AM 40.4183 101.2971 113° Southeast  Level Estimated
05:27AM 40.3694 101.4454 113° Southeast  Level Estimated
05:28AM 40.3202 101.5936 113° Southeast  Level Estimated
05:29AM 40.2709 101.7416 114° Southeast  Level Estimated
05:30AM 40.2214 101.8893 114° Southeast  Level Estimated
05:31AM 40.1717 102.0369 114° Southeast  Level Estimated
05:32AM 40.1218 102.1842 114° Southeast  Level Estimated
05:33AM 40.0717 102.3313 114° Southeast  Level Estimated
05:34AM 40.0214 102.4781 114° Southeast  Level Estimated
05:35AM 39.9710 102.6248 114° Southeast  Level Estimated
05:36AM 39.9203 102.7713 114° Southeast  Level Estimated
05:37AM 39.8695 102.9175 114° Southeast  Level Estimated
05:38AM 39.8185 103.0635 114° Southeast  Level Estimated
05:39AM 39.7673 103.2093 115° Southeast  Level Estimated
05:40AM 39.7160 103.3549 115° Southeast  Level Estimated
05:41AM 39.6644 103.5002 115° Southeast  Level Estimated
05:42AM 39.6127 103.6454 115° Southeast  Level Estimated
05:43AM 39.5608 103.7903 115° Southeast  Level Estimated
05:44AM 39.5087 103.9350 115° Southeast  Level Estimated
05:45AM 39.4564 104.0795 115° Southeast  Level Estimated
05:46AM 39.4040 104.2238 115° Southeast  Level Estimated
05:47AM 39.3514 104.3679 115° Southeast  Level Estimated
05:48AM 39.2986 104.5117 115° Southeast  Level Estimated
05:49AM 39.2456 104.6553 115° Southeast  Level Estimated
05:50AM 39.1925 104.7987 116° Southeast  Level Estimated
05:51AM 39.1391 104.9419 116° Southeast  Level Estimated
05:52AM 39.0856 105.0849 116° Southeast  Level Estimated
05:53AM 39.0319 105.2276 116° Southeast  Level Estimated
05:54AM 38.9781 105.3702 116° Southeast  Level Estimated
05:55AM 38.9241 105.5125 116° Southeast  Level Estimated
05:56AM 38.8699 105.6546 116° Southeast  Level Estimated
05:57AM 38.8155 105.7965 116° Southeast  Level Estimated
05:58AM 38.7610 105.9382 116° Southeast  Level Estimated
05:59AM 38.7062 106.0796 116° Southeast  Level Estimated
06:00AM 38.6514 106.2209 116° Southeast  Level Estimated
06:01AM 38.5963 106.3619 117° Southeast  Level Estimated
06:02AM 38.5411 106.5027 117° Southeast  Level Estimated
06:03AM 38.4857 106.6433 117° Southeast  Level Estimated
06:04AM 38.4301 106.7837 117° Southeast  Level Estimated
06:05AM 38.3744 106.9238 117° Southeast  Level Estimated
06:06AM 38.3185 107.0638 117° Southeast  Level Estimated
06:07AM 38.2625 107.2035 117° Southeast  Level Estimated
06:08AM 38.2063 107.3430 117° Southeast  Level Estimated
06:09AM 38.1499 107.4823 117° Southeast  Level Estimated
06:10AM 38.0933 107.6214 117° Southeast  Level Estimated
06:11AM 38.0366 107.7602 117° Southeast  Level Estimated
06:12AM 37.9797 107.8989 117° Southeast  Level Estimated
06:13AM 37.9227 108.0373 118° Southeast  Level Estimated
06:14AM 37.8655 108.1755 118° Southeast  Level Estimated
06:15AM 37.8081 108.3135 118° Southeast  Level Estimated
06:16AM 37.7506 108.4513 118° Southeast  Level Estimated
06:17AM 37.6929 108.5889 118° Southeast  Level Estimated
06:18AM 37.6351 108.7262 118° Southeast  Level Estimated
06:19AM 37.5771 108.8634 118° Southeast  Level Estimated
06:20AM 37.5189 109.0003 118° Southeast  Level Estimated
06:21AM 37.4606 109.1370 118° Southeast  Level Estimated
06:22AM 37.4021 109.2735 118° Southeast  Level Estimated
06:23AM 37.3435 109.4098 118° Southeast  Level Estimated
06:24AM 37.2847 109.5459 118° Southeast  Level Estimated
06:25AM 37.2258 109.6818 119° Southeast  Level Estimated
06:26AM 37.1667 109.8174 119° Southeast  Level Estimated
06:27AM 37.1074 109.9529 119° Southeast  Level Estimated
06:28AM 37.0480 110.0881 119° Southeast  Level Estimated
06:29AM 36.9885 110.2231 119° Southeast  Level Estimated
06:30AM 36.9287 110.3579 119° Southeast  Level Estimated
06:31AM 36.8689 110.4925 119° Southeast  Level Estimated
06:32AM 36.8089 110.6269 119° Southeast  Level Estimated
06:33AM 36.7487 110.7611 119° Southeast  Level Estimated
06:34AM 36.6884 110.8950 119° Southeast  Level Estimated
06:35AM 36.6279 111.0288 119° Southeast  Level Estimated
06:36AM 36.5673 111.1623 119° Southeast  Level Estimated
06:37AM 36.5065 111.2956 120° Southeast  Level Estimated
06:38AM 36.4456 111.4288 120° Southeast  Level Estimated
06:39AM 36.3846 111.5617 120° Southeast  Level Estimated
06:40AM 36.3233 111.6944 120° Southeast  Level Estimated
06:41AM 36.2620 111.8269 120° Southeast  Level Estimated
06:42AM 36.2005 111.9592 120° Southeast  Level Estimated
06:43AM 36.1389 112.0912 120° Southeast  Level Estimated
06:44AM 36.0771 112.2231 120° Southeast  Level Estimated
06:45AM 36.0151 112.3548 120° Southeast  Level Estimated
06:46AM 35.9530 112.4863 120° Southeast  Level Estimated
06:47AM 35.8908 112.6175 120° Southeast  Level Estimated
06:48AM 35.8285 112.7486 120° Southeast  Level Estimated
06:49AM 35.7660 112.8794 120° Southeast  Level Estimated
06:50AM 35.7033 113.0100 121° Southeast  Level Estimated
06:51AM 35.6405 113.1404 121° Southeast  Level Estimated
06:52AM 35.5776 113.2707 121° Southeast  Level Estimated
06:53AM 35.5145 113.4007 121° Southeast  Level Estimated
06:54AM 35.4513 113.5305 121° Southeast  Level Estimated
06:55AM 35.3880 113.6601 121° Southeast  Level Estimated
06:56AM 35.3245 113.7895 121° Southeast  Level Estimated
06:57AM 35.2609 113.9187 121° Southeast  Level Estimated
06:58AM 35.1971 114.0477 121° Southeast  Level Estimated
06:59AM 35.1332 114.1765 121° Southeast  Level Estimated
07:00AM 35.0692 114.3051 121° Southeast  Level Estimated
07:01AM 35.0050 114.4335 121° Southeast  Level Estimated
07:02AM 34.9407 114.5617 121° Southeast  Level Estimated
07:03AM 34.8763 114.6897 122° Southeast  Level Estimated
07:04AM 34.8117 114.8175 122° Southeast  Level Estimated
07:05AM 34.7470 114.9451 122° Southeast  Level Estimated
07:06AM 34.6822 115.0725 122° Southeast  Level Estimated
07:07AM 34.6172 115.1997 122° Southeast  Level Estimated
07:08AM 34.5521 115.3266 122° Southeast  Level Estimated
07:09AM 34.4869 115.4534 122° Southeast  Level Estimated
07:10AM 34.4215 115.5800 122° Southeast  Level Estimated
07:11AM 34.3560 115.7064 122° Southeast  Level Estimated
07:12AM 34.2904 115.8326 122° Southeast  Level Estimated
07:13AM 34.2246 115.9586 122° Southeast  Level Estimated
07:14AM 34.1587 116.0844 122° Southeast  Level Estimated
07:15AM 34.0927 116.2100 122° Southeast  Level Estimated
07:16AM 34.0266 116.3354 122° Southeast  Level Estimated
07:17AM 33.9603 116.4607 123° Southeast  Level Estimated
07:18AM 33.8940 116.5857 123° Southeast  Level Estimated
07:19AM 33.8274 116.7105 123° Southeast  Level Estimated
07:20AM 33.7608 116.8351 123° Southeast  Level Estimated
07:21AM 33.6940 116.9596 123° Southeast  Level Estimated
07:22AM 33.6271 117.0838 123° Southeast  Level Estimated
07:23AM 33.5601 117.2079 123° Southeast  Level Estimated
07:24AM 33.4930 117.3317 123° Southeast  Level Estimated
07:25AM 33.4257 117.4554 123° Southeast  Level Estimated
07:26AM 33.3583 117.5789 123° Southeast  Level Estimated
07:27AM 33.2908 117.7022 123° Southeast  Level Estimated
07:28AM 33.2232 117.8253 123° Southeast  Level Estimated
07:29AM 33.1554 117.9482 123° Southeast  Level Estimated
07:30AM 33.0876 118.0709 123° Southeast  Level Estimated
07:31AM 33.0196 118.1934 123° Southeast  Level Estimated
07:32AM 32.9515 118.3157 124° Southeast  Level Estimated
07:33AM 32.8832 118.4379 124° Southeast  Level Estimated
07:34AM 32.8149 118.5599 124° Southeast  Level Estimated
07:35AM 32.7464 118.6816 124° Southeast  Level Estimated
07:36AM 32.6778 118.8032 124° Southeast  Level Estimated
07:37AM 32.6091 118.9246 124° Southeast  Level Estimated
07:38AM 32.5403 119.0458 124° Southeast  Level Estimated
07:39AM 32.4714 119.1668 124° Southeast  Level Estimated
07:40AM 32.4023 119.2877 124° Southeast  Level Estimated
07:41AM 32.3332 119.4083 124° Southeast  Level Estimated
07:42AM 32.2639 119.5288 124° Southeast  Level Estimated
07:43AM 32.1945 119.6491 124° Southeast  Level Estimated
07:44AM 32.1250 119.7692 124° Southeast  Level Estimated
07:45AM 32.0554 119.8891 124° Southeast  Level Estimated
07:46AM 31.9856 120.0089 124° Southeast  Level Estimated
07:47AM 31.9158 120.1284 125° Southeast  Level Estimated
07:48AM 31.8458 120.2478 125° Southeast  Level Estimated
07:49AM 31.7758 120.3670 125° Southeast  Level Estimated
07:50AM 31.7056 120.4860 125° Southeast  Level Estimated
07:51AM 31.6353 120.6048 125° Southeast  Level Estimated
07:52AM 31.5649 120.7235 125° Southeast  Level Estimated
07:53AM 31.4944 120.8419 125° Southeast  Level Estimated
07:54AM 31.4238 120.9603 125° Southeast  Level Estimated
07:55AM 31.3531 121.0784 125° Southeast  Level Estimated
07:56AM 31.2822 121.1963 125° Southeast  Level Estimated
07:57AM 31.2113 121.3141 125° Southeast  Level Estimated
07:58AM 31.1979 121.3363 125° Southeast  Level Estimated
07:59AM 31.1979 121.3363 350° North  Level Estimated
08:00AM 31.1979 121.3363 350° North  Level Estimated
08:01AM 31.1979 121.3363 350° North  Level Estimated
08:01AM 31.3282 121.1860 109° East 270 311 7,600  Level FlightAware ADS-B (ZSSS / SHA)
08:01AM 31.3228 121.1991 120° Southeast 280 322 7,200 -2,580 Descending FlightAware ADS-B (ZSSS / SHA)
08:01AM 31.3198 121.2039 128° Southeast 284 327 7,000 -2,040 Descending FlightAware ADS-B (ZSSS / SHA)
08:01AM 31.3150 121.2091 133° Southeast 285 328 6,900 -1,680 Descending FlightAware ADS-B (ZSSS / SHA)
08:01AM 31.3086 121.2144 145° Southeast 284 327 6,700 -1,140 Descending FlightAware ADS-B (ZSSS / SHA)
08:01AM 31.3032 121.2171 152° Southeast 281 323 6,700 -600 Level FlightAware ADS-B (ZSSS / SHA)
08:01AM 31.2968 121.2200 161° South 279 321 6,600 -600 Descending FlightAware ADS-B (ZSSS / SHA)
08:02AM 31.2913 121.2212 170° South 275 316 6,600  Level FlightAware ADS-B (ZSSS / SHA)
08:02AM 31.2843 121.2218 175° South 273 314 6,600  Level FlightAware ADS-B (ZSSS / SHA)
08:02AM 31.2654 121.2227 177° South 272 313 6,600  Level FlightAware ADS-B (ZSSS / SHA)
08:02AM 31.2398 121.2240 177° South 269 310 6,600 -180 Level FlightAware ADS-B (ZSSS / SHA)
08:03AM 31.2148 121.2252 177° South 269 310 6,500 -1,020 Descending FlightAware ADS-B (ZSSS / SHA)
08:03AM 31.1970 121.2261 177° South 274 315 6,000 -1,260 Descending FlightAware ADS-B (ZSSS / SHA)
08:03AM 31.1794 121.2270 177° South 268 308 5,800 -840 Descending FlightAware ADS-B (ZSSS / SHA)
08:03AM 31.1584 121.2281 177° South 264 304 5,600 -1,500 Descending FlightAware ADS-B (ZSSS / SHA)
08:04AM 31.1028 121.2314 178° South 270 311 4,400 -1,500 Descending FlightAware ADS-B (ZSSS / SHA)
08:04AM 31.0856 121.2321 176° South 267 307 4,200 -840 Descending FlightAware ADS-B (ZSSS / SHA)
08:05AM 31.0674 121.2335 175° South 256 295 4,000 -600 Descending FlightAware ADS-B (ZSSS / SHA)
08:06AM 31.0036 121.2380 160° South 209 241 3,400 -660 Descending FlightAware ADS-B (ZSSS / SHA)
08:06AM 30.9869 121.2566 117° Southeast 193 222 3,100 -840 Descending FlightAware ADS-B (ZSSS / SHA)
08:09AM 31.1979 121.3363 18° North  Level Estimated
08:10AM 31.1979 121.3363 350° North  Level Estimated
08:11AM 31.1979 121.3363 350° North  Level Estimated
08:12AM 31.1979 121.3363 350° North  Level Estimated
08:13AM 31.1979 121.3363 350° North  Level Estimated
08:14AM 31.1979 121.3363 350° North  Level Estimated
08:15AM 31.1979 121.3363 350° North  Level Estimated
08:16AM 31.1979 121.3363 350° North  Level Estimated